createdAt,value
2023-04-16T00:01:31.090Z,32.39
2023-04-16T00:03:59.677Z,32.60
2023-04-16T00:06:28.723Z,32.67
2023-04-16T00:08:55.829Z,32.56
2023-04-16T00:11:22.862Z,32.77
2023-04-16T00:13:50.014Z,32.60
2023-04-16T00:16:17.099Z,32.35
2023-04-16T00:18:44.236Z,32.46
2023-04-16T00:21:13.607Z,32.87
2023-04-16T00:23:43.153Z,32.86
2023-04-16T00:26:10.232Z,33.08
2023-04-16T00:28:39.591Z,33.07
2023-04-16T00:31:06.626Z,33.21
2023-04-16T00:33:34.230Z,33.33
2023-04-16T00:36:01.625Z,33.57
2023-04-16T00:38:30.515Z,34.01
2023-04-16T00:41:02.302Z,33.80
2023-04-16T00:43:30.799Z,34.04
2023-04-16T00:45:58.216Z,34.00
2023-04-16T00:48:27.942Z,34.10
2023-04-16T00:50:55.660Z,34.00
2023-04-16T00:53:25.271Z,34.14
2023-04-16T00:55:52.371Z,34.08
2023-04-16T00:58:19.836Z,33.94
2023-04-16T01:00:46.768Z,33.65
2023-04-16T01:03:13.968Z,33.61
2023-04-16T01:05:41.086Z,33.69
2023-04-16T01:08:16.609Z,33.92
2023-04-16T01:10:49.753Z,34.00
2023-04-16T01:13:16.887Z,33.91
2023-04-16T01:15:44.139Z,34.09
2023-04-16T01:18:17.376Z,34.27
2023-04-16T01:20:44.876Z,34.20
2023-04-16T01:23:12.327Z,33.99
2023-04-16T01:25:43.911Z,34.30
2023-04-16T01:28:11.252Z,34.27
2023-04-16T01:30:38.169Z,34.36
2023-04-16T01:33:14.610Z,34.26
2023-04-16T01:35:44.296Z,34.16
2023-04-16T01:38:11.260Z,34.54
2023-04-16T01:40:38.433Z,34.65
2023-04-16T01:43:05.621Z,34.57
2023-04-16T01:45:33.787Z,34.52
2023-04-16T01:48:01.046Z,34.21
2023-04-16T01:50:31.325Z,34.25
2023-04-16T01:52:58.340Z,34.49
2023-04-16T01:55:25.393Z,34.46
2023-04-16T01:57:52.373Z,34.38
2023-04-16T02:00:22.901Z,34.72
2023-04-16T02:02:52.479Z,34.91
2023-04-16T02:05:26.522Z,34.63
2023-04-16T02:07:53.706Z,34.91
2023-04-16T02:10:20.887Z,34.71
2023-04-16T02:12:48.428Z,34.82
2023-04-16T02:15:16.748Z,34.59
2023-04-16T02:17:46.679Z,34.87
2023-04-16T02:20:13.927Z,35.30
2023-04-16T02:22:51.513Z,35.06
2023-04-16T02:25:21.005Z,35.45
2023-04-16T02:27:48.004Z,35.36
2023-04-16T02:30:25.404Z,35.46
2023-04-16T02:32:53.403Z,35.65
2023-04-16T02:35:21.400Z,35.75
2023-04-16T02:37:49.695Z,36.00
2023-04-16T02:40:17.701Z,35.90
2023-04-16T02:42:44.644Z,36.09
2023-04-16T02:45:12.175Z,36.20
2023-04-16T02:47:39.449Z,36.42
2023-04-16T02:50:07.743Z,36.28
2023-04-16T02:52:34.772Z,36.58
2023-04-16T02:55:01.763Z,36.68
2023-04-16T02:57:30.961Z,36.77
2023-04-16T02:59:58.093Z,36.71
2023-04-16T03:02:25.614Z,36.76
2023-04-16T03:04:52.635Z,36.77
2023-04-16T03:07:19.728Z,36.74
2023-04-16T03:09:46.744Z,36.74
2023-04-16T03:12:13.863Z,36.90
2023-04-16T03:14:41.372Z,36.60
2023-04-16T03:17:08.412Z,36.74
2023-04-16T03:19:35.620Z,36.57
2023-04-16T03:22:02.785Z,36.64
2023-04-16T03:24:29.852Z,36.69
2023-04-16T03:26:58.363Z,36.75
2023-04-16T03:29:26.843Z,36.54
2023-04-16T03:31:55.218Z,36.59
2023-04-16T03:34:23.664Z,36.22
2023-04-16T03:36:50.730Z,35.94
2023-04-16T03:39:20.032Z,35.51
2023-04-16T03:41:47.597Z,35.16
2023-04-16T03:44:17.645Z,34.95
2023-04-16T03:46:45.870Z,34.88
2023-04-16T03:49:13.044Z,34.67
2023-04-16T03:51:40.180Z,33.69
2023-04-16T03:54:08.832Z,33.17
2023-04-16T03:56:35.867Z,33.42
2023-04-16T03:59:03.106Z,33.20
2023-04-16T04:01:30.383Z,33.03
2023-04-16T04:03:58.354Z,33.11
2023-04-16T04:06:25.467Z,33.04
2023-04-16T04:08:52.455Z,33.03
2023-04-16T04:11:19.573Z,32.52
2023-04-16T04:13:47.336Z,33.01
2023-04-16T04:16:14.411Z,32.69
2023-04-16T04:18:44.619Z,33.46
2023-04-16T04:21:12.203Z,33.13
2023-04-16T04:23:39.334Z,32.42
2023-04-16T04:26:07.762Z,32.33
2023-04-16T04:28:35.610Z,31.82
2023-04-16T04:31:07.513Z,31.45
2023-04-16T04:33:34.557Z,31.73
2023-04-16T04:36:01.703Z,31.64
2023-04-16T04:38:30.198Z,30.99
2023-04-16T04:40:58.356Z,31.05
2023-04-16T04:43:27.452Z,30.97
2023-04-16T04:45:57.129Z,31.08
2023-04-16T04:48:27.772Z,31.17
2023-04-16T04:50:57.500Z,31.42
2023-04-16T04:53:24.702Z,30.97
2023-04-16T04:55:54.206Z,31.02
2023-04-16T04:58:24.366Z,30.94
2023-04-16T05:00:53.404Z,30.93
2023-04-16T05:03:27.659Z,31.08
2023-04-16T05:05:58.765Z,31.21
2023-04-16T05:08:28.816Z,31.18
2023-04-16T05:10:57.653Z,31.16
2023-04-16T05:13:24.630Z,30.48
2023-04-16T05:15:51.637Z,30.47
2023-04-16T05:18:18.660Z,30.13
2023-04-16T05:20:45.741Z,29.67
2023-04-16T05:23:12.677Z,29.63
2023-04-16T05:25:39.764Z,29.45
2023-04-16T05:28:06.744Z,29.95
2023-04-16T05:30:33.913Z,28.73
2023-04-16T05:33:07.263Z,28.60
2023-04-16T05:35:35.159Z,28.25
2023-04-16T05:38:04.532Z,28.00
2023-04-16T05:40:32.217Z,28.07
2023-04-16T05:42:59.161Z,28.11
2023-04-16T05:45:27.966Z,27.69
2023-04-16T05:47:55.308Z,27.31
2023-04-16T05:50:22.391Z,27.98
2023-04-16T05:52:49.371Z,28.15
2023-04-16T05:55:16.837Z,28.13
2023-04-16T05:57:43.773Z,27.90
2023-04-16T06:00:11.007Z,27.42
2023-04-16T06:02:41.750Z,27.21
2023-04-16T06:05:09.117Z,26.95
2023-04-16T06:07:36.197Z,26.77
2023-04-16T06:10:03.997Z,26.83
2023-04-16T06:12:32.519Z,26.29
2023-04-16T06:15:04.359Z,26.48
2023-04-16T06:17:31.857Z,26.83
2023-04-16T06:19:58.943Z,26.48
2023-04-16T06:22:26.061Z,26.50
2023-04-16T06:24:53.713Z,26.17
2023-04-16T06:27:20.959Z,25.92
2023-04-16T06:29:48.420Z,25.38
2023-04-16T06:32:17.432Z,25.45
2023-04-16T06:34:45.766Z,25.36
2023-04-16T06:37:12.876Z,25.54
2023-04-16T06:39:45.949Z,25.09
2023-04-16T06:42:13.069Z,24.28
2023-04-16T06:44:40.612Z,24.32
2023-04-16T06:47:15.346Z,24.52
2023-04-16T06:49:42.332Z,24.59
2023-04-16T06:52:12.148Z,23.56
2023-04-16T06:54:39.596Z,23.91
2023-04-16T06:57:06.700Z,23.91
2023-04-16T06:59:33.755Z,23.37
2023-04-16T07:02:01.564Z,23.39
2023-04-16T07:04:28.826Z,23.46
2023-04-16T07:06:56.614Z,22.88
2023-04-16T07:09:27.365Z,23.11
2023-04-16T07:11:55.045Z,23.40
2023-04-16T07:14:22.643Z,23.42
2023-04-16T07:16:49.929Z,22.86
2023-04-16T07:19:16.997Z,23.37
2023-04-16T07:21:44.387Z,22.68
2023-04-16T07:24:12.386Z,22.18
2023-04-16T07:26:39.849Z,22.55
2023-04-16T07:29:12.947Z,22.75
2023-04-16T07:31:40.165Z,22.44
2023-04-16T07:34:11.039Z,22.61
2023-04-16T07:36:42.037Z,22.97
2023-04-16T07:39:11.190Z,22.33
2023-04-16T07:41:40.138Z,22.11
2023-04-16T07:44:07.925Z,22.22
2023-04-16T07:46:45.447Z,21.83
2023-04-16T07:49:14.752Z,22.50
2023-04-16T07:51:45.034Z,21.76
2023-04-16T07:54:12.116Z,21.59
2023-04-16T07:56:39.969Z,21.31
2023-04-16T07:59:32.889Z,21.06
2023-04-16T08:02:00.110Z,20.98
2023-04-16T08:04:30.431Z,20.95
2023-04-16T08:06:59.957Z,20.51
2023-04-16T08:09:31.624Z,20.32
2023-04-16T08:12:02.359Z,19.97
2023-04-16T08:14:29.558Z,20.00
2023-04-16T08:16:56.619Z,20.25
2023-04-16T08:19:23.915Z,18.92
2023-04-16T08:21:51.392Z,19.10
2023-04-16T08:24:18.566Z,18.58
2023-04-16T08:26:45.994Z,18.15
2023-04-16T08:29:15.062Z,18.33
2023-04-16T08:31:43.173Z,18.53
2023-04-16T08:34:11.646Z,17.38
2023-04-16T08:36:38.892Z,17.69
2023-04-16T08:39:06.071Z,17.31
2023-04-16T08:41:39.698Z,17.95
2023-04-16T08:44:14.364Z,17.96
2023-04-16T08:46:44.615Z,17.79
2023-04-16T08:49:18.177Z,16.75
2023-04-16T08:51:50.842Z,16.86
2023-04-16T08:54:30.556Z,16.95
2023-04-16T08:56:59.039Z,17.09
2023-04-16T08:59:29.353Z,16.82
2023-04-16T09:02:21.904Z,16.72
2023-04-16T09:04:50.089Z,16.97
2023-04-16T09:07:19.893Z,16.63
2023-04-16T09:09:51.938Z,16.83
2023-04-16T09:12:19.660Z,16.89
2023-04-16T09:14:57.319Z,17.12
2023-04-16T09:17:29.359Z,17.48
2023-04-16T09:20:01.531Z,17.46
2023-04-16T09:22:30.718Z,16.99
2023-04-16T09:24:59.669Z,17.34
2023-04-16T09:27:27.221Z,16.92
2023-04-16T09:29:54.511Z,17.25
2023-04-16T09:32:27.329Z,16.84
2023-04-16T09:35:02.028Z,16.60
2023-04-16T09:37:32.936Z,16.82
2023-04-16T09:40:00.656Z,16.47
2023-04-16T09:42:32.690Z,16.11
2023-04-16T09:45:02.150Z,15.37
2023-04-16T09:47:45.906Z,15.48
2023-04-16T09:50:18.830Z,15.16
2023-04-16T09:52:51.758Z,15.14
2023-04-16T09:55:27.719Z,14.86
2023-04-16T09:58:01.693Z,14.10
2023-04-16T10:00:32.198Z,14.21
2023-04-16T10:03:07.196Z,14.09
2023-04-16T10:05:35.703Z,15.14
2023-04-16T10:08:03.463Z,15.30
2023-04-16T10:10:30.723Z,15.46
2023-04-16T10:12:58.553Z,14.47
2023-04-16T10:15:26.119Z,13.88
2023-04-16T10:17:54.039Z,13.40
2023-04-16T10:20:26.995Z,13.26
2023-04-16T10:22:54.791Z,13.24
2023-04-16T10:25:21.864Z,13.28
2023-04-16T10:27:50.656Z,12.88
2023-04-16T10:30:18.940Z,13.03
2023-04-16T10:32:49.339Z,13.01
2023-04-16T10:35:19.943Z,13.23
2023-04-16T10:37:49.200Z,12.80
2023-04-16T10:40:26.713Z,13.05
2023-04-16T10:42:59.677Z,12.72
2023-04-16T10:45:37.524Z,12.06
2023-04-16T10:48:10.157Z,12.75
2023-04-16T10:50:37.871Z,12.33
2023-04-16T10:53:29.420Z,12.03
2023-04-16T10:56:06.012Z,11.62
2023-04-16T10:58:36.460Z,11.93
2023-04-16T11:01:34.181Z,12.22
2023-04-16T11:04:22.952Z,12.22
2023-04-16T11:07:15.623Z,11.54
2023-04-16T11:10:00.088Z,11.59
2023-04-16T11:12:40.501Z,11.33
2023-04-16T11:15:08.042Z,11.58
2023-04-16T11:18:01.878Z,12.37
2023-04-16T11:20:32.202Z,12.22
2023-04-16T11:22:59.354Z,12.24
2023-04-16T11:25:31.927Z,12.02
2023-04-16T11:27:59.529Z,11.67
2023-04-16T11:30:41.241Z,11.43
2023-04-16T11:33:10.016Z,11.86
2023-04-16T11:35:40.521Z,11.55
2023-04-16T11:38:07.836Z,11.65
2023-04-16T11:40:36.148Z,11.33
2023-04-16T11:43:05.619Z,12.11
2023-04-16T11:45:32.627Z,12.43
2023-04-16T11:48:01.222Z,11.95
2023-04-16T11:50:28.938Z,11.72
2023-04-16T11:52:58.119Z,11.51
2023-04-16T11:55:25.662Z,12.59
2023-04-16T11:57:52.872Z,13.12
2023-04-16T12:00:24.862Z,13.07
2023-04-16T12:02:54.100Z,12.44
2023-04-16T12:05:33.868Z,11.64
2023-04-16T12:08:03.889Z,11.83
2023-04-16T12:10:35.155Z,11.58
2023-04-16T12:13:12.751Z,11.25
2023-04-16T12:15:56.848Z,11.07
2023-04-16T12:18:28.566Z,10.69
2023-04-16T12:20:58.413Z,10.34
2023-04-16T12:23:33.371Z,10.74
2023-04-16T12:26:10.745Z,11.30
2023-04-16T12:28:41.908Z,10.64
2023-04-16T12:31:10.892Z,10.74
2023-04-16T12:33:38.252Z,10.24
2023-04-16T12:36:19.236Z,10.49
2023-04-16T12:38:46.799Z,10.63
2023-04-16T12:41:13.854Z,10.58
2023-04-16T12:43:43.680Z,10.63
2023-04-16T12:46:11.120Z,10.54
2023-04-16T12:48:41.273Z,10.60
2023-04-16T12:51:10.149Z,10.65
2023-04-16T12:53:43.437Z,10.92
2023-04-16T12:56:10.551Z,10.77
2023-04-16T12:58:38.725Z,11.84
2023-04-16T13:01:05.749Z,10.72
2023-04-16T13:03:35.598Z,10.64
2023-04-16T13:06:03.465Z,10.46
2023-04-16T13:08:31.116Z,10.00
2023-04-16T13:10:58.212Z,9.29
2023-04-16T13:13:25.265Z,9.27
2023-04-16T13:15:54.531Z,10.05
2023-04-16T13:18:26.624Z,9.66
2023-04-16T13:20:54.422Z,9.18
2023-04-16T13:23:21.642Z,9.36
2023-04-16T13:25:50.580Z,9.84
2023-04-16T13:28:17.850Z,9.81
2023-04-16T13:30:46.862Z,9.62
2023-04-16T13:33:17.181Z,9.12
2023-04-16T13:35:44.221Z,9.64
2023-04-16T13:38:12.338Z,9.94
2023-04-16T13:40:42.044Z,9.73
2023-04-16T13:43:09.586Z,9.42
2023-04-16T13:45:38.009Z,9.20
2023-04-16T13:48:05.669Z,8.92
2023-04-16T13:50:36.074Z,9.18
2023-04-16T13:53:06.546Z,9.67
2023-04-16T13:55:33.763Z,10.20
2023-04-16T13:58:00.847Z,10.83
2023-04-16T14:00:28.588Z,11.62
2023-04-16T14:02:56.199Z,12.30
2023-04-16T14:05:26.605Z,12.02
2023-04-16T14:07:54.477Z,11.36
2023-04-16T14:10:26.754Z,10.62
2023-04-16T14:12:59.204Z,10.68
2023-04-16T14:15:28.991Z,11.01
2023-04-16T14:17:56.478Z,10.61
2023-04-16T14:20:23.629Z,10.79
2023-04-16T14:22:56.298Z,10.33
2023-04-16T14:25:26.627Z,10.73
2023-04-16T14:27:53.802Z,10.89
2023-04-16T14:30:34.817Z,10.75
2023-04-16T14:33:02.242Z,10.66
2023-04-16T14:35:30.227Z,10.64
2023-04-16T14:37:59.222Z,10.64
2023-04-16T14:40:35.521Z,10.12
2023-04-16T14:43:07.082Z,10.45
2023-04-16T14:45:35.076Z,10.35
2023-04-16T14:48:04.557Z,11.76
2023-04-16T14:50:31.850Z,12.69
2023-04-16T14:52:58.914Z,13.38
2023-04-16T14:55:26.498Z,14.02
2023-04-16T14:57:53.973Z,14.20
2023-04-16T15:00:31.836Z,14.60
2023-04-16T15:02:58.977Z,15.30
2023-04-16T15:05:26.727Z,15.32
2023-04-16T15:07:55.464Z,15.37
2023-04-16T15:10:22.651Z,15.62
2023-04-16T15:12:55.885Z,16.46
2023-04-16T15:15:25.765Z,15.90
2023-04-16T15:17:52.836Z,16.21
2023-04-16T15:20:20.214Z,16.02
2023-04-16T15:22:50.527Z,16.39
2023-04-16T15:25:21.039Z,16.78
2023-04-16T15:27:48.444Z,17.07
2023-04-16T15:30:15.899Z,17.03
2023-04-16T15:32:49.991Z,17.33
2023-04-16T15:35:17.053Z,17.58
2023-04-16T15:37:44.183Z,17.77
2023-04-16T15:40:12.075Z,17.86
2023-04-16T15:42:39.191Z,17.75
2023-04-16T15:45:06.693Z,17.86
2023-04-16T15:47:34.594Z,17.73
2023-04-16T15:50:01.866Z,18.09
2023-04-16T15:52:32.925Z,18.05
2023-04-16T15:55:02.359Z,18.29
2023-04-16T15:57:31.590Z,18.29
2023-04-16T16:00:07.089Z,18.19
2023-04-16T16:02:34.980Z,18.38
2023-04-16T16:05:03.413Z,18.46
2023-04-16T16:07:35.836Z,18.76
2023-04-16T16:10:06.242Z,18.94
2023-04-16T16:12:34.712Z,18.96
2023-04-16T16:15:11.389Z,18.77
2023-04-16T16:17:48.601Z,19.17
2023-04-16T16:20:16.594Z,19.18
2023-04-16T16:22:48.225Z,19.12
2023-04-16T16:25:18.241Z,19.11
2023-04-16T16:27:46.232Z,19.31
2023-04-16T16:30:14.378Z,19.48
2023-04-16T16:32:48.061Z,19.80
2023-04-16T16:35:16.658Z,19.76
2023-04-16T16:37:43.688Z,19.84
2023-04-16T16:40:13.369Z,19.80
2023-04-16T16:43:00.351Z,20.15
2023-04-16T16:45:49.482Z,20.40
2023-04-16T16:48:18.318Z,20.25
2023-04-16T16:51:09.565Z,20.46
2023-04-16T16:53:39.483Z,20.54
2023-04-16T16:56:25.294Z,20.41
2023-04-16T16:58:52.340Z,20.85
2023-04-16T17:01:25.688Z,20.40
2023-04-16T17:03:53.253Z,20.69
2023-04-16T17:06:25.459Z,20.55
2023-04-16T17:08:54.880Z,21.10
2023-04-16T17:11:27.709Z,21.43
2023-04-16T17:13:58.313Z,21.90
2023-04-16T17:16:25.553Z,21.91
2023-04-16T17:19:18.382Z,21.61
2023-04-16T17:21:45.684Z,21.23
2023-04-16T17:24:16.287Z,21.39
2023-04-16T17:27:02.307Z,21.72
2023-04-16T17:29:32.849Z,21.24
2023-04-16T17:32:00.020Z,21.36
2023-04-16T17:34:31.177Z,21.46
2023-04-16T17:36:58.180Z,21.66
2023-04-16T17:39:26.253Z,21.48
2023-04-16T17:41:58.655Z,21.52
2023-04-16T17:44:44.572Z,21.22
2023-04-16T17:47:12.282Z,21.28
2023-04-16T17:49:42.600Z,21.48
2023-04-16T17:52:16.166Z,21.28
2023-04-16T17:54:44.122Z,21.59
2023-04-16T17:57:32.056Z,21.96
2023-04-16T18:00:03.020Z,22.19
2023-04-16T18:02:41.103Z,22.23
2023-04-16T18:05:12.371Z,21.92
2023-04-16T18:07:39.877Z,22.09
2023-04-16T18:10:10.701Z,21.90
2023-04-16T18:12:40.450Z,21.75
2023-04-16T18:15:08.238Z,22.00
2023-04-16T18:17:35.406Z,21.93
2023-04-16T18:20:02.434Z,21.89
2023-04-16T18:22:31.952Z,21.80
2023-04-16T18:25:19.897Z,21.92
2023-04-16T18:28:14.069Z,22.12
2023-04-16T18:30:50.131Z,22.24
2023-04-16T18:33:53.410Z,22.22
2023-04-16T18:36:23.351Z,22.48
2023-04-16T18:39:01.086Z,22.34
2023-04-16T18:41:31.446Z,22.63
2023-04-16T18:43:59.179Z,22.89
2023-04-16T18:46:27.642Z,22.97
2023-04-16T18:49:06.476Z,22.69
2023-04-16T18:51:35.556Z,22.98
2023-04-16T18:54:06.132Z,22.80
2023-04-16T18:56:33.240Z,22.97
2023-04-16T18:59:19.751Z,22.97
2023-04-16T19:01:46.948Z,23.27
2023-04-16T19:04:15.159Z,23.13
2023-04-16T19:06:42.248Z,23.20
2023-04-16T19:09:11.415Z,23.13
2023-04-16T19:11:38.688Z,23.24
2023-04-16T19:14:06.142Z,23.42
2023-04-16T19:16:54.008Z,23.80
2023-04-16T19:19:21.201Z,23.63
2023-04-16T19:21:51.477Z,23.74
2023-04-16T19:24:19.958Z,24.01
2023-04-16T19:26:47.005Z,23.73
2023-04-16T19:29:14.099Z,23.80
2023-04-16T19:31:41.091Z,23.89
2023-04-16T19:34:08.186Z,24.17
2023-04-16T19:36:37.768Z,24.50
2023-04-16T19:39:04.974Z,24.44
2023-04-16T19:41:33.217Z,24.49
2023-04-16T19:44:02.865Z,24.48
2023-04-16T19:46:29.781Z,24.58
2023-04-16T19:49:16.178Z,24.60
2023-04-16T19:51:43.252Z,24.43
2023-04-16T19:54:10.374Z,24.20
2023-04-16T19:56:38.446Z,24.35
2023-04-16T19:59:05.483Z,24.54
2023-04-16T20:01:33.480Z,24.58
2023-04-16T20:04:07.233Z,24.63
2023-04-16T20:06:37.331Z,24.67
2023-04-16T20:09:09.709Z,24.36
2023-04-16T20:11:38.111Z,24.35
2023-04-16T20:14:05.205Z,24.89
2023-04-16T20:16:32.375Z,24.55
2023-04-16T20:19:04.072Z,24.53
2023-04-16T20:21:34.729Z,24.85
2023-04-16T20:24:03.114Z,24.67
2023-04-16T20:26:34.168Z,24.87
2023-04-16T20:29:01.743Z,24.81
2023-04-16T20:31:29.338Z,25.34
2023-04-16T20:33:56.618Z,25.24
2023-04-16T20:36:23.665Z,25.14
2023-04-16T20:38:53.779Z,25.21
2023-04-16T20:41:21.479Z,25.02
2023-04-16T20:43:55.654Z,24.86
2023-04-16T20:46:30.297Z,25.38
2023-04-16T20:48:57.657Z,25.44
2023-04-16T20:51:24.581Z,25.53
2023-04-16T20:53:53.990Z,25.40
2023-04-16T20:56:21.049Z,25.28
2023-04-16T20:58:48.107Z,25.82
2023-04-16T21:01:18.458Z,25.58
2023-04-16T21:03:46.071Z,25.48
2023-04-16T21:06:17.820Z,25.95
2023-04-16T21:08:45.517Z,25.58
2023-04-16T21:11:13.265Z,25.71
2023-04-16T21:13:40.333Z,26.45
2023-04-16T21:16:11.662Z,26.07
2023-04-16T21:18:38.893Z,25.99
2023-04-16T21:21:06.156Z,26.07
2023-04-16T21:23:33.273Z,25.88
2023-04-16T21:26:00.257Z,25.95
2023-04-16T21:28:27.656Z,26.12
2023-04-16T21:30:57.076Z,25.89
2023-04-16T21:33:24.080Z,26.13
2023-04-16T21:35:52.475Z,26.08
2023-04-16T21:38:20.409Z,26.15
2023-04-16T21:40:50.789Z,26.37
2023-04-16T21:43:17.990Z,26.13
2023-04-16T21:45:45.206Z,26.46
2023-04-16T21:48:12.553Z,26.54
2023-04-16T21:50:39.809Z,26.82
2023-04-16T21:53:06.856Z,26.67
2023-04-16T21:55:35.023Z,26.63
2023-04-16T21:58:05.489Z,26.38
2023-04-16T22:00:33.204Z,26.27
2023-04-16T22:03:04.925Z,26.34
2023-04-16T22:05:33.318Z,26.68
2023-04-16T22:08:17.098Z,26.75
2023-04-16T22:10:48.372Z,26.83
2023-04-16T22:13:18.023Z,26.95
2023-04-16T22:15:45.096Z,26.96
2023-04-16T22:18:12.240Z,26.99
2023-04-16T22:20:40.013Z,27.12
2023-04-16T22:23:07.103Z,26.90
2023-04-16T22:25:34.093Z,27.00
2023-04-16T22:28:07.299Z,26.92
2023-04-16T22:30:34.285Z,27.07
2023-04-16T22:33:02.125Z,27.06
2023-04-16T22:35:29.224Z,27.11
2023-04-16T22:37:56.309Z,27.30
2023-04-16T22:40:23.287Z,27.29
2023-04-16T22:42:53.140Z,27.40
2023-04-16T22:45:20.546Z,27.27
2023-04-16T22:47:49.101Z,27.07
2023-04-16T22:50:16.536Z,27.45
2023-04-16T22:52:43.600Z,27.63
2023-04-16T22:55:10.882Z,27.64
2023-04-16T22:57:40.777Z,27.63
2023-04-16T23:00:18.110Z,27.57
2023-04-16T23:02:46.654Z,27.58
2023-04-16T23:05:13.969Z,27.60
2023-04-16T23:07:41.420Z,27.55
2023-04-16T23:10:09.984Z,27.65
2023-04-16T23:12:40.649Z,27.87
2023-04-16T23:15:08.042Z,28.14
2023-04-16T23:17:35.558Z,28.17
2023-04-16T23:20:02.954Z,28.28
2023-04-16T23:22:30.333Z,28.14
2023-04-16T23:25:04.490Z,28.48
2023-04-16T23:27:32.610Z,28.57
2023-04-16T23:29:59.766Z,28.23
2023-04-16T23:32:28.299Z,28.55
2023-04-16T23:34:55.493Z,28.69
2023-04-16T23:37:22.409Z,29.38
2023-04-16T23:39:49.343Z,28.96
2023-04-16T23:42:19.284Z,28.75
2023-04-16T23:44:46.491Z,28.62
2023-04-16T23:47:13.482Z,28.98
2023-04-16T23:49:40.547Z,29.48
2023-04-16T23:52:07.733Z,29.92
2023-04-16T23:54:34.787Z,29.73
2023-04-16T23:57:01.823Z,30.02
2023-04-16T23:59:29.020Z,29.34
